KCMX/CMX METAR and TAF weather

Enter ICAO airport designator
Station Type Date Time Source
KCMX METAR 2019/04/19 21:53 UTC NOAA

KCMX 192153Z AUTO 27004KT 10SM CLR 13/M07 A2994 RMK AO2 SLP147 T01281067


Station Type Date Time Source
KCMX Decoded METAR 2019/04/19 21:53 UTC NOAA

HANCOCK HOUGHTON CTY. MEMO, MI, United States (KCMX) 47-10N 088-29W 326M
Apr 19, 2019 - 05:53 PM EDT / 2019.04.19 2153 UTC
Wind: from the W (270 degrees) at 5 MPH (4 KT):0
Visibility: 10 mile(s):0
Sky conditions: clear
Temperature: 55.0 F (12.8 C)
Dew Point: 19.9 F (-6.7 C)
Relative Humidity: 25%
Pressure (altimeter): 29.94 in. Hg (1013 hPa)
ob: KCMX 192153Z AUTO 27004KT 10SM CLR 13/M07 A2994 RMK AO2 SLP147 T01281067
cycle: 22

Station Type Date Time Source
KCMX TAF 2019/04/19 18:22 UTC NOAA

TAF KCMX 191720Z 1918/2018 31007KT P6SM SKC
FM200900 17006KT P6SM SKC

Example: see airport list